Time;durP1;ratioP1;P1;durP2;ratioP2;P2;SDS_P1;SDS_P2;PMS_P1;PMS_P2;Temp;Humidity;BMP_temperature;BMP_pressure;BME280_temperature;BME280_humidity;BME280_pressure;Samples;Min_cycle;Max_cycle;Signal;HPM_P1;HPM_P2
2023/04/06 00:00:49;;;;;;;10.07;9.40;;;;;;;7.28;100.00;147876.44;5092826;28;20226;-59
2023/04/06 00:03:16;;;;;;;11.10;10.40;;;;;;;7.15;100.00;147843.69;5092161;28;20184;-59
2023/04/06 00:05:45;;;;;;;9.77;9.17;;;;;;;7.09;100.00;147829.78;5092615;28;20195;-59
2023/04/06 00:08:12;;;;;;;9.50;9.00;;;;;;;6.94;100.00;147792.00;5092664;28;20191;-60
2023/04/06 00:10:39;;;;;;;9.60;9.03;;;;;;;7.14;100.00;147841.16;5092413;28;20184;-59
2023/04/06 00:13:07;;;;;;;9.60;9.10;;;;;;;7.06;100.00;147822.25;5092467;28;20253;-60
2023/04/06 00:15:34;;;;;;;9.03;8.60;;;;;;;7.09;100.00;147829.78;5092482;28;20237;-59
2023/04/06 00:18:01;;;;;;;9.47;8.87;;;;;;;7.15;100.00;147844.94;5092738;28;20650;-59
2023/04/06 00:20:29;;;;;;;10.63;9.83;;;;;;;6.97;100.00;147798.28;5092338;28;20558;-59
2023/04/06 00:22:57;;;;;;;9.83;9.23;;;;;;;7.13;100.00;147838.66;5092289;28;20191;-59
2023/04/06 00:25:24;;;;;;;10.67;9.97;;;;;;;6.96;100.00;147795.81;5092295;28;20184;-60
2023/04/06 00:27:51;;;;;;;11.03;10.23;;;;;;;7.13;100.00;147838.66;5092088;28;20188;-59
2023/04/06 00:30:19;;;;;;;11.07;10.37;;;;;;;6.94;100.00;147792.00;5092466;28;20638;-59
2023/04/06 00:32:46;;;;;;;10.60;9.90;;;;;;;7.01;100.00;147808.38;5090915;28;20184;-59
2023/04/06 00:35:14;;;;;;;10.37;9.77;;;;;;;6.99;100.00;147803.34;5092382;28;20657;-60
2023/04/06 00:37:41;;;;;;;11.07;10.43;;;;;;;7.06;100.00;147820.97;5092385;28;20188;-60
2023/04/06 00:40:11;;;;;;;11.53;10.73;;;;;;;7.01;100.00;147808.38;5092087;28;20184;-59
2023/04/06 00:42:38;;;;;;;11.10;10.23;;;;;;;6.95;100.00;147794.53;5092039;28;20184;-59
2023/04/06 00:45:09;;;;;;;11.23;10.47;;;;;;;6.94;100.00;147790.75;5091936;28;20191;-60
2023/04/06 00:47:36;;;;;;;10.73;10.10;;;;;;;7.00;100.00;147807.09;5091834;28;20184;-59
2023/04/06 00:50:03;;;;;;;10.77;10.07;;;;;;;6.97;100.00;147798.28;5091866;28;20192;-60
2023/04/06 00:52:30;;;;;;;10.57;9.97;;;;;;;6.78;100.00;147751.69;5091791;28;20207;-59
2023/04/06 00:54:58;;;;;;;10.00;9.23;;;;;;;6.89;100.00;147780.66;5092060;28;20204;-59
2023/04/06 00:57:26;;;;;;;8.87;8.47;;;;;;;6.83;100.00;147765.50;5092071;28;20635;-59
2023/04/06 00:59:54;;;;;;;9.20;8.60;;;;;;;6.72;100.00;147737.81;5091653;28;20180;-60
2023/04/06 01:02:21;;;;;;;8.57;8.00;;;;;;;6.76;100.00;147747.91;5091753;28;20189;-61
2023/04/06 01:04:48;;;;;;;8.57;8.13;;;;;;;6.73;100.00;147739.09;5091702;28;20192;-59
2023/04/06 01:07:15;;;;;;;8.10;7.70;;;;;;;6.51;100.00;147684.91;5091795;28;20188;-60
2023/04/06 01:09:43;;;;;;;7.73;7.30;;;;;;;6.74;100.00;147741.63;5091585;28;20184;-60
2023/04/06 01:12:10;;;;;;;8.00;7.70;;;;;;;6.83;100.00;147765.50;5091389;28;20328;-59
2023/04/06 01:14:39;;;;;;;7.87;7.50;;;;;;;6.84;100.00;147766.78;5094420;28;20282;-60
2023/04/06 01:17:06;;;;;;;8.30;7.90;;;;;;;6.64;100.00;147717.66;5095715;28;20187;-60
2023/04/06 01:19:33;;;;;;;7.30;7.00;;;;;;;6.83;100.00;147765.50;5096115;28;20550;-60
2023/04/06 01:22:00;;;;;;;7.83;7.30;;;;;;;6.82;100.00;147763.03;5095662;28;20190;-59
2023/04/06 01:24:29;;;;;;;8.33;7.80;;;;;;;6.82;100.00;147763.03;5095660;28;20184;-60
2023/04/06 01:26:56;;;;;;;7.73;7.17;;;;;;;6.72;100.00;147736.56;5095654;28;20562;-60
2023/04/06 01:29:23;;;;;;;7.10;6.70;;;;;;;6.81;100.00;147759.25;5095652;28;20333;-59
2023/04/06 01:31:50;;;;;;;7.13;6.83;;;;;;;6.85;100.00;147770.59;5096027;28;20203;-59
2023/04/06 01:34:17;;;;;;;7.23;6.93;;;;;;;6.86;100.00;147771.84;5095512;28;20208;-58
2023/04/06 01:36:46;;;;;;;6.77;6.47;;;;;;;6.86;100.00;147771.84;5095456;28;20275;-60
2023/04/06 01:39:13;;;;;;;6.93;6.63;;;;;;;6.78;100.00;147752.97;5095391;28;20188;-60
2023/04/06 01:41:42;;;;;;;7.07;6.77;;;;;;;6.79;100.00;147754.16;5095401;28;20199;-60
2023/04/06 01:44:09;;;;;;;7.77;7.40;;;;;;;6.72;100.00;147737.81;5095694;28;20627;-59
2023/04/06 01:46:36;;;;;;;7.63;7.33;;;;;;;6.69;100.00;147729.00;5095301;28;20188;-60
2023/04/06 01:49:03;;;;;;;8.10;7.70;;;;;;;6.66;100.00;147722.66;5095234;28;20188;-58
2023/04/06 01:51:30;;;;;;;7.47;7.07;;;;;;;6.62;100.00;147711.38;5095569;28;20194;-59
2023/04/06 01:53:57;;;;;;;7.90;7.50;;;;;;;6.50;100.00;147682.38;5095111;28;20210;-59
2023/04/06 01:56:26;;;;;;;7.10;6.80;;;;;;;6.53;100.00;147689.97;5095138;28;20192;-58
2023/04/06 01:58:54;;;;;;;8.10;7.70;;;;;;;6.51;100.00;147684.91;5095014;28;20184;-60
2023/04/06 02:01:22;;;;;;;7.90;7.40;;;;;;;6.51;100.00;147684.91;5094958;28;20188;-59
2023/04/06 02:03:49;;;;;;;8.37;7.77;;;;;;;6.26;100.00;147621.91;5095046;28;20176;-59
2023/04/06 02:06:16;;;;;;;7.87;7.47;;;;;;;6.15;100.00;147594.22;5095209;28;20278;-60
2023/04/06 02:08:43;;;;;;;7.87;7.57;;;;;;;6.36;100.00;147647.13;5094887;28;20200;-60
2023/04/06 02:11:10;;;;;;;7.47;7.07;;;;;;;6.16;100.00;147597.97;5094764;28;20236;-58
2023/04/06 02:13:37;;;;;;;7.30;7.00;;;;;;;6.16;100.00;147596.72;5095084;28;20547;-58
2023/04/06 02:16:06;;;;;;;7.33;7.03;;;;;;;6.43;100.00;147664.75;5094688;28;20184;-59
2023/04/06 02:18:33;;;;;;;8.20;7.67;;;;;;;6.33;100.00;147640.81;5094940;28;20199;-60
2023/04/06 02:21:01;;;;;;;7.80;7.40;;;;;;;6.29;100.00;147630.72;5094665;28;20191;-58
2023/04/06 02:23:28;;;;;;;7.70;7.30;;;;;;;6.33;100.00;147639.53;5094557;28;20180;-59
2023/04/06 02:25:55;;;;;;;7.20;6.90;;;;;;;6.32;100.00;147637.06;5093900;28;20187;-59
2023/04/06 02:28:22;;;;;;;8.13;7.73;;;;;;;6.38;100.00;147652.13;5094510;28;20195;-59
2023/04/06 02:30:49;;;;;;;7.77;7.27;;;;;;;6.20;100.00;147606.78;5094772;28;20687;-59
2023/04/06 02:33:18;;;;;;;8.57;8.17;;;;;;;6.46;100.00;147672.28;5094327;28;20199;-59
2023/04/06 02:35:45;;;;;;;8.60;8.10;;;;;;;6.52;100.00;147686.16;5094275;28;20191;-59
2023/04/06 02:38:13;;;;;;;8.30;7.90;;;;;;;6.58;100.00;147702.53;5094255;28;20284;-60
2023/04/06 02:40:40;;;;;;;8.40;7.57;;;;;;;6.55;100.00;147694.97;5094339;28;20188;-59
2023/04/06 02:43:07;;;;;;;8.73;8.33;;;;;;;6.55;100.00;147694.97;5094481;28;20278;-59
2023/04/06 02:45:34;;;;;;;8.23;7.70;;;;;;;6.54;100.00;147692.44;5094113;28;20192;-59
2023/04/06 02:48:01;;;;;;;7.50;7.20;;;;;;;6.47;100.00;147674.81;5093988;28;20206;-60
2023/04/06 02:50:33;;;;;;;7.70;7.30;;;;;;;6.46;100.00;147671.03;5094080;28;20276;-60
2023/04/06 02:53:00;;;;;;;8.73;8.30;;;;;;;6.53;100.00;147689.97;5094298;28;20627;-59
2023/04/06 02:55:27;;;;;;;8.47;7.90;;;;;;;6.55;100.00;147694.97;5093896;28;20204;-59
2023/04/06 02:57:54;;;;;;;8.07;7.50;;;;;;;6.61;100.00;147708.84;5093920;28;20181;-59
2023/04/06 03:00:21;;;;;;;8.03;7.70;;;;;;;6.52;100.00;147686.16;5094178;28;20546;-59
2023/04/06 03:02:48;;;;;;;7.57;6.93;;;;;;;6.54;100.00;147692.44;5094171;28;20237;-60
2023/04/06 03:05:17;;;;;;;8.50;7.87;;;;;;;6.37;100.00;147650.88;5093886;28;20196;-60
2023/04/06 03:07:45;;;;;;;8.67;8.00;;;;;;;6.20;100.00;147606.78;5093741;28;20188;-60
2023/04/06 03:10:13;;;;;;;8.57;8.10;;;;;;;6.51;100.00;147684.91;5093855;28;20199;-60
2023/04/06 03:12:41;;;;;;;8.30;7.70;;;;;;;6.50;100.00;147682.38;5093488;28;20235;-59
2023/04/06 03:15:10;;;;;;;8.33;7.83;;;;;;;6.40;100.00;147658.47;5093750;28;20778;-59
2023/04/06 03:17:37;;;;;;;8.33;7.93;;;;;;;6.37;100.00;147649.59;5093637;28;20267;-59
2023/04/06 03:20:05;;;;;;;9.00;7.97;;;;;;;6.51;100.00;147684.91;5093635;28;20188;-59
2023/04/06 03:22:32;;;;;;;9.27;8.33;;;;;;;6.36;100.00;147648.41;5093331;28;20184;-60
2023/04/06 03:25:00;;;;;;;9.17;8.67;;;;;;;6.48;100.00;147677.34;5093397;28;20203;-58
2023/04/06 03:27:27;;;;;;;9.43;8.70;;;;;;;6.13;100.00;147590.44;5093716;28;20612;-59
2023/04/06 03:29:55;;;;;;;8.80;8.30;;;;;;;6.29;100.00;147629.47;5093221;28;20180;-60
2023/04/06 03:32:22;;;;;;;9.50;8.57;;;;;;;6.54;100.00;147691.19;5093289;28;20203;-60
2023/04/06 03:34:49;;;;;;;9.63;8.73;;;;;;;6.38;100.00;147653.41;5093055;28;20211;-60
2023/04/06 03:37:16;;;;;;;10.17;9.40;;;;;;;6.40;100.00;147657.19;5092149;28;20203;-59
2023/04/06 03:39:43;;;;;;;9.07;8.53;;;;;;;6.27;100.00;147624.44;5093124;28;20249;-59
2023/04/06 03:42:12;;;;;;;8.70;8.30;;;;;;;6.42;100.00;147662.22;5093433;28;20527;-59
2023/04/06 03:44:39;;;;;;;8.80;7.97;;;;;;;6.37;100.00;147649.59;5093006;28;20226;-60
2023/04/06 03:47:06;;;;;;;9.87;8.73;;;;;;;6.45;100.00;147669.75;5092926;28;20188;-59
2023/04/06 03:49:33;;;;;;;9.87;9.00;;;;;;;6.32;100.00;147638.28;5091762;28;20199;-59
2023/04/06 03:52:02;;;;;;;17.20;9.10;;;;;;;6.47;100.00;147673.56;5093059;28;20325;-60
2023/04/06 03:54:30;;;;;;;14.50;9.30;;;;;;;6.34;100.00;147643.34;5092855;28;20204;-59
2023/04/06 03:56:57;;;;;;;17.03;10.40;;;;;;;6.49;100.00;147679.88;5092824;28;20271;-60
2023/04/06 03:59:25;;;;;;;16.97;9.63;;;;;;;6.44;100.00;147667.28;5092701;28;20191;-59
2023/04/06 04:01:53;;;;;;;19.10;9.73;;;;;;;6.32;100.00;147637.06;5092740;28;20195;-59
2023/04/06 04:04:20;;;;;;;9.83;8.93;;;;;;;6.31;100.00;147634.53;5092658;28;20714;-59
2023/04/06 04:06:47;;;;;;;10.50;9.50;;;;;;;6.50;100.00;147681.09;5092882;28;20184;-59
2023/04/06 04:09:14;;;;;;;10.83;9.63;;;;;;;6.47;100.00;147674.81;5092886;28;20630;-60
2023/04/06 04:11:42;;;;;;;9.83;9.07;;;;;;;6.27;100.00;147624.44;5092285;28;20284;-59
2023/04/06 04:14:09;;;;;;;11.00;8.70;;;;;;;6.34;100.00;147643.34;5092291;28;20204;-59
2023/04/06 04:16:39;;;;;;;13.73;9.67;;;;;;;6.31;100.00;147634.53;5092371;28;20195;-60
2023/04/06 04:19:06;;;;;;;11.40;10.20;;;;;;;6.43;100.00;147664.75;5092934;28;20735;-59
2023/04/06 04:21:33;;;;;;;11.87;9.70;;;;;;;6.39;100.00;147655.94;5092559;28;20622;-59
2023/04/06 04:24:00;;;;;;;10.83;9.80;;;;;;;6.38;100.00;147653.41;5092452;28;20562;-59
2023/04/06 04:26:27;;;;;;;13.80;9.50;;;;;;;6.38;100.00;147653.41;5092232;28;20194;-58
2023/04/06 04:28:54;;;;;;;11.10;9.83;;;;;;;6.32;100.00;147638.28;5092155;28;20194;-58
2023/04/06 04:31:22;;;;;;;13.70;10.00;;;;;;;6.34;100.00;147642.06;5092228;28;20195;-60
2023/04/06 04:33:51;;;;;;;13.23;10.33;;;;;;;6.30;100.00;147632.00;5092231;28;20651;-59
2023/04/06 04:36:18;;;;;;;13.40;11.07;;;;;;;6.19;100.00;147604.31;5092055;28;20271;-60
2023/04/06 04:38:45;;;;;;;18.57;11.03;;;;;;;6.37;100.00;147649.59;5091952;28;20190;-59
2023/04/06 04:41:12;;;;;;;21.67;11.00;;;;;;;6.33;100.00;147639.53;5091909;28;20189;-59
2023/04/06 04:43:39;;;;;;;19.00;11.43;;;;;;;6.32;100.00;147637.06;5092003;28;20184;-59
2023/04/06 04:46:06;;;;;;;12.20;10.93;;;;;;;6.35;100.00;147644.59;5091943;28;20180;-59
2023/04/06 04:48:34;;;;;;;12.20;10.90;;;;;;;6.28;100.00;147626.97;5091565;28;20191;-58
2023/04/06 04:51:02;;;;;;;19.63;11.27;;;;;;;6.23;100.00;147615.63;5091822;28;20566;-59
2023/04/06 04:53:29;;;;;;;17.40;11.67;;;;;;;6.33;100.00;147640.81;5091991;28;20706;-59
2023/04/06 04:55:57;;;;;;;21.00;11.47;;;;;;;6.22;100.00;147611.84;5091562;28;20204;-59
2023/04/06 04:58:24;;;;;;;12.80;11.30;;;;;;;6.45;100.00;147668.53;5091761;28;20192;-60
2023/04/06 05:00:51;;;;;;;16.03;11.60;;;;;;;6.46;100.00;147671.03;5091950;28;20550;-61
2023/04/06 05:03:22;;;;;;;11.70;10.60;;;;;;;6.45;100.00;147668.53;5091948;28;20604;-60
2023/04/06 05:05:52;;;;;;;27.20;11.60;;;;;;;6.37;100.00;147649.59;5091641;28;20180;-61
2023/04/06 05:08:20;;;;;;;12.70;10.73;;;;;;;6.50;100.00;147682.38;5091910;28;20720;-60
2023/04/06 05:10:47;;;;;;;18.40;13.07;;;;;;;6.55;100.00;147694.97;5091426;28;20192;-59
2023/04/06 05:13:15;;;;;;;11.77;10.60;;;;;;;6.46;100.00;147672.28;5091815;28;20238;-59
2023/04/06 05:15:42;;;;;;;16.37;10.53;;;;;;;6.55;100.00;147693.72;5091518;28;20200;-59
2023/04/06 05:18:10;;;;;;;10.90;10.00;;;;;;;6.56;100.00;147697.50;5091743;28;20199;-59
2023/04/06 05:20:39;;;;;;;13.60;9.83;;;;;;;6.69;100.00;147730.28;5090253;28;20184;-60
2023/04/06 05:23:06;;;;;;;10.90;10.00;;;;;;;6.66;100.00;147722.66;5091598;28;20710;-60
2023/04/06 05:25:35;;;;;;;10.03;9.53;;;;;;;6.68;100.00;147727.75;5091734;28;20550;-60
2023/04/06 05:28:02;;;;;;;10.60;9.60;;;;;;;6.68;100.00;147726.47;5091362;28;20190;-60
2023/04/06 05:30:30;;;;;;;17.07;10.57;;;;;;;6.67;100.00;147723.94;5091686;28;20184;-59
2023/04/06 05:32:57;;;;;;;11.33;10.33;;;;;;;6.76;100.00;147747.91;5091517;28;20184;-60
2023/04/06 05:35:24;;;;;;;11.37;10.57;;;;;;;6.79;100.00;147755.44;5091325;28;20208;-61
2023/04/06 05:37:51;;;;;;;18.90;10.73;;;;;;;6.86;100.00;147773.13;5091664;28;20622;-60
2023/04/06 05:40:21;;;;;;;16.43;10.90;;;;;;;6.89;100.00;147780.66;5091486;28;20555;-60
2023/04/06 05:42:51;;;;;;;11.60;10.40;;;;;;;6.85;100.00;147770.59;5090936;28;20184;-60
2023/04/06 05:45:21;;;;;;;15.33;11.60;;;;;;;6.85;100.00;147770.59;5091188;28;20623;-59
2023/04/06 05:47:48;;;;;;;18.83;10.43;;;;;;;6.99;100.00;147803.34;5090845;28;20188;-59
2023/04/06 05:50:16;;;;;;;15.93;11.10;;;;;;;7.06;100.00;147822.25;5090768;28;20188;-58
2023/04/06 05:52:46;;;;;;;16.70;9.93;;;;;;;7.02;100.00;147812.16;5090976;28;20655;-59
2023/04/06 05:55:14;;;;;;;22.50;10.93;;;;;;;7.02;100.00;147812.16;5090775;28;20258;-60
2023/04/06 05:57:41;;;;;;;17.37;11.20;;;;;;;7.00;100.00;147805.88;5091067;28;20191;-60
2023/04/06 06:00:11;;;;;;;19.13;10.37;;;;;;;7.06;100.00;147822.25;5090925;28;20210;-60
2023/04/06 06:02:42;;;;;;;13.50;11.53;;;;;;;7.17;100.00;147848.75;5094528;28;20188;-59
2023/04/06 06:05:09;;;;;;;21.20;10.33;;;;;;;7.13;100.00;147838.66;5093267;28;20298;-59
2023/04/06 06:07:37;;;;;;;10.10;9.30;;;;;;;7.05;100.00;147818.44;5094582;28;20188;-59
2023/04/06 06:10:04;;;;;;;9.40;8.90;;;;;;;7.01;100.00;147808.38;5095260;28;20559;-62
2023/04/06 06:12:31;;;;;;;9.07;8.23;;;;;;;6.95;100.00;147793.28;5094675;28;20720;-61
2023/04/06 06:14:59;;;;;;;9.83;9.30;;;;;;;6.74;100.00;147742.88;5094761;28;20659;-61
2023/04/06 06:17:27;;;;;;;10.43;9.30;;;;;;;7.09;100.00;147829.78;5094683;28;20602;-61
2023/04/06 06:19:54;;;;;;;10.40;9.80;;;;;;;7.02;100.00;147812.16;5094716;28;20535;-62
2023/04/06 06:22:22;;;;;;;11.60;9.53;;;;;;;7.16;100.00;147846.22;5094365;28;20215;-65
2023/04/06 06:24:49;;;;;;;10.30;9.57;;;;;;;7.24;100.00;147866.38;5094321;28;20206;-62
2023/04/06 06:27:16;;;;;;;15.23;10.27;;;;;;;7.15;100.00;147844.94;5094266;28;20184;-62
2023/04/06 06:29:43;;;;;;;18.77;10.47;;;;;;;7.38;100.00;147901.69;5094196;28;20566;-63
2023/04/06 06:32:10;;;;;;;17.80;10.37;;;;;;;7.46;100.00;147921.84;5094463;28;20638;-62
2023/04/06 06:34:39;;;;;;;11.70;10.80;;;;;;;7.60;100.00;147955.88;5093792;28;20188;-62
2023/04/06 06:37:07;;;;;;;11.20;10.00;;;;;;;7.82;100.00;148011.34;5094215;28;20191;-62
2023/04/06 06:39:34;;;;;;;9.73;8.97;;;;;;;7.81;100.00;148010.09;5093804;28;20192;-63
2023/04/06 06:42:01;;;;;;;9.23;8.67;;;;;;;7.96;100.00;148046.69;5094179;28;20616;-61
2023/04/06 06:44:31;;;;;;;10.63;9.70;;;;;;;8.11;100.00;148083.25;5093016;28;20190;-62
2023/04/06 06:46:58;;;;;;;13.53;11.00;;;;;;;8.40;100.00;148156.47;5093786;28;20188;-63
2023/04/06 06:49:25;;;;;;;23.23;11.60;;;;;;;8.58;100.00;148200.66;5093843;28;20213;-62
2023/04/06 06:51:54;;;;;;;11.37;10.63;;;;;;;8.60;100.00;148205.72;5093815;28;20558;-62
2023/04/06 06:54:21;;;;;;;19.37;12.67;;;;;;;8.85;100.00;148267.56;5093497;28;20279;-64
2023/04/06 06:56:50;;;;;;;12.10;11.03;;;;;;;8.98;100.00;148300.38;5093476;28;20208;-62
2023/04/06 06:59:17;;;;;;;12.33;11.17;;;;;;;9.43;100.00;148414.00;5093526;28;20185;-63
2023/04/06 07:01:44;;;;;;;18.43;12.00;;;;;;;9.52;100.00;148436.72;5093597;28;20184;-63
2023/04/06 07:04:13;;;;;;;16.13;11.83;;;;;;;10.20;100.00;148606.06;5093657;28;20182;-62
2023/04/06 07:06:41;;;;;;;12.47;11.07;;;;;;;10.38;100.00;148650.31;5093558;28;20237;-63
2023/04/06 07:09:10;;;;;;;13.37;11.30;;;;;;;11.07;100.00;148823.50;5093404;28;20195;-63
2023/04/06 07:11:37;;;;;;;17.60;11.63;;;;;;;11.52;100.00;148936.06;5093193;28;20720;-63
2023/04/06 07:14:07;;;;;;;13.77;10.43;;;;;;;11.16;100.00;148845.00;5092875;28;20204;-62
2023/04/06 07:16:35;;;;;;;9.23;8.63;;;;;;;11.28;100.00;148875.38;5093510;28;20644;-61
2023/04/06 07:19:02;;;;;;;10.20;9.57;;;;;;;11.22;100.00;148860.16;5093090;28;20206;-63
2023/04/06 07:21:29;;;;;;;8.07;7.70;;;;;;;11.62;100.00;148960.09;5093318;28;20180;-62
2023/04/06 07:24:01;;;;;;;7.40;6.47;;;;;;;11.58;100.00;148951.25;5093265;28;20214;-62
2023/04/06 07:26:30;;;;;;;7.07;6.50;;;;;;;11.27;100.00;148872.81;5092975;28;20237;-64
2023/04/06 07:28:57;;;;;;;18.93;7.50;;;;;;;11.84;100.00;149017.06;5093080;28;20184;-62
2023/04/06 07:31:24;;;;;;;12.80;6.93;;;;;;;11.74;100.00;148990.50;5093337;28;20184;-63
2023/04/06 07:33:57;;;;;;;12.23;7.47;;;;;;;11.83;100.00;149013.28;5093236;27;20206;-62
2023/04/06 07:36:24;;;;;;;8.63;6.90;;;;;;;11.75;100.00;148993.06;5092986;28;20614;-61
2023/04/06 07:38:51;;;;;;;7.87;7.27;;;;;;;11.64;100.00;148965.16;5092935;28;20192;-62
2023/04/06 07:41:18;;;;;;;6.93;6.37;;;;;;;11.87;100.00;149023.41;5093101;28;20199;-63
2023/04/06 07:43:47;;;;;;;7.23;6.67;;;;;;;11.81;100.00;149008.22;5093181;28;20224;-62
2023/04/06 07:46:14;;;;;;;7.80;6.93;;;;;;;12.16;100.00;149096.81;5092793;28;20184;-63
2023/04/06 07:48:41;;;;;;;6.23;5.93;;;;;;;12.16;100.00;149095.53;5093095;28;20278;-62
2023/04/06 07:51:10;;;;;;;7.07;6.47;;;;;;;12.46;100.00;149170.22;5092742;28;20291;-62
2023/04/06 07:53:37;;;;;;;8.37;7.57;;;;;;;12.37;100.00;149148.69;5093396;28;20242;-62
2023/04/06 07:56:04;;;;;;;7.77;7.37;;;;;;;12.13;100.00;149089.22;5092707;28;20222;-62
2023/04/06 07:58:31;;;;;;;8.67;8.27;;;;;;;12.41;100.00;149158.81;5092853;28;20191;-62
2023/04/06 08:01:00;;;;;;;9.13;8.63;;;;;;;12.48;100.00;149176.53;5092683;28;20184;-62
2023/04/06 08:03:27;;;;;;;8.77;8.37;;;;;;;12.16;100.00;149095.53;5092792;28;20196;-61
2023/04/06 08:05:55;;;;;;;9.60;8.80;;;;;;;12.33;100.00;149139.84;5092524;28;20191;-62
2023/04/06 08:08:22;;;;;;;10.50;8.17;;;;;;;12.45;100.00;149167.69;5092325;28;20531;-62
2023/04/06 08:10:49;;;;;;;8.60;8.13;;;;;;;12.44;100.00;149165.13;5092017;28;20245;-61
2023/04/06 08:13:17;;;;;;;8.30;7.43;;;;;;;12.62;100.00;149210.72;5092672;28;20188;-62
2023/04/06 08:15:44;;;;;;;8.27;7.87;;;;;;;12.59;100.00;149203.16;5092664;28;20207;-61
2023/04/06 08:18:13;;;;;;;9.97;7.83;;;;;;;12.54;100.00;149190.47;5092419;28;20206;-61
2023/04/06 08:20:41;;;;;;;14.07;7.00;;;;;;;12.50;100.00;149180.34;5092546;28;20184;-61
2023/04/06 08:23:10;;;;;;;6.57;6.03;;;;;;;12.64;100.00;149215.81;5091679;28;20650;-63
2023/04/06 08:25:38;;;;;;;8.67;6.80;;;;;;;12.67;100.00;149223.41;5092486;28;20176;-62
2023/04/06 08:28:05;;;;;;;6.77;6.27;;;;;;;12.64;100.00;149215.81;5090681;28;20228;-61
2023/04/06 08:30:32;;;;;;;7.17;6.43;;;;;;;12.66;100.00;149220.84;5092380;28;20212;-62
2023/04/06 08:33:00;;;;;;;7.17;6.67;;;;;;;12.78;100.00;149252.50;5092468;28;20575;-62
2023/04/06 08:35:29;;;;;;;7.10;6.70;;;;;;;12.91;100.00;149284.16;5092065;28;20231;-63
2023/04/06 08:37:56;;;;;;;9.30;6.67;;;;;;;13.06;100.00;149322.19;5092007;28;20597;-61
2023/04/06 08:40:23;;;;;;;6.30;6.00;;;;;;;12.97;100.00;149299.38;5091679;28;20190;-62
2023/04/06 08:42:53;;;;;;;6.80;6.50;;;;;;;13.15;100.00;149343.75;5092290;28;20184;-61
2023/04/06 08:45:21;;;;;;;6.87;6.30;;;;;;;13.17;100.00;149350.06;5091889;28;20192;-61
2023/04/06 08:47:49;;;;;;;7.27;6.50;;;;;;;13.10;100.00;149332.38;5091786;28;20216;-61
2023/04/06 08:50:19;;;;;;;8.23;6.97;;;;;;;12.68;100.00;149227.22;5092199;28;20589;-61
2023/04/06 08:52:52;;;;;;;12.10;7.63;;;;;;;13.27;100.00;149375.44;5091295;28;20234;-61
2023/04/06 08:55:19;;;;;;;11.47;7.23;;;;;;;13.30;100.00;149380.47;5091537;28;20188;-62
2023/04/06 08:57:53;;;;;;;10.20;7.33;;;;;;;13.19;100.00;149353.91;5091716;28;20275;-61
2023/04/06 09:00:21;;;;;;;7.93;6.87;;;;;;;13.28;100.00;149376.72;5091841;28;20608;-63
2023/04/06 09:02:50;;;;;;;11.80;6.80;;;;;;;13.02;100.00;149312.06;5091446;28;20199;-62
2023/04/06 09:05:18;;;;;;;7.40;6.33;;;;;;;13.10;100.00;149332.38;5091803;28;20263;-62
2023/04/06 09:07:46;;;;;;;8.10;7.40;;;;;;;12.73;100.00;149239.84;5091871;28;20188;-62
2023/04/06 09:10:18;;;;;;;8.53;7.87;;;;;;;12.57;100.00;149198.06;5092123;28;20527;-63
2023/04/06 09:12:45;;;;;;;8.37;6.87;;;;;;;12.30;100.00;149132.25;5091388;28;20661;-63
2023/04/06 09:15:19;;;;;;;9.83;6.47;;;;;;;12.19;100.00;149103.13;5091068;28;20222;-62
2023/04/06 09:17:47;;;;;;;6.27;5.97;;;;;;;12.05;100.00;149067.72;5092003;28;20222;-62
2023/04/06 09:20:14;;;;;;;7.10;6.50;;;;;;;12.00;100.00;149055.06;5092026;28;20184;-62
2023/04/06 09:22:42;;;;;;;7.13;6.83;;;;;;;12.08;100.00;149076.56;5091307;28;20188;-62
2023/04/06 09:25:11;;;;;;;6.20;5.80;;;;;;;11.84;100.00;149017.06;5091515;28;20214;-62
2023/04/06 09:27:41;;;;;;;7.17;6.87;;;;;;;11.87;100.00;149023.41;5091624;28;20516;-63
2023/04/06 09:30:13;;;;;;;12.77;7.27;;;;;;;11.79;100.00;149004.44;5091184;28;20211;-60
2023/04/06 09:32:48;;;;;;;7.60;6.93;;;;;;;11.86;100.00;149020.88;5091134;28;20191;-62
2023/04/06 09:35:15;;;;;;;7.93;7.13;;;;;;;11.77;100.00;148998.09;5091615;28;20194;-63
2023/04/06 09:37:43;;;;;;;6.80;6.17;;;;;;;11.87;100.00;149023.41;5095107;28;20210;-62
2023/04/06 09:40:13;;;;;;;7.03;6.67;;;;;;;11.66;100.00;148971.50;5095124;28;20184;-63
2023/04/06 09:42:42;;;;;;;6.83;6.53;;;;;;;11.89;100.00;149029.72;5095223;28;20223;-61
2023/04/06 09:45:10;;;;;;;7.17;6.60;;;;;;;11.91;100.00;149033.53;5095535;28;20579;-62
2023/04/06 09:47:40;;;;;;;8.50;7.73;;;;;;;12.05;100.00;149068.94;5095140;28;20180;-62
2023/04/06 09:50:10;;;;;;;8.13;7.50;;;;;;;12.01;100.00;149058.81;5094709;28;20219;-63
2023/04/06 09:52:42;;;;;;;7.53;7.13;;;;;;;12.17;100.00;149099.34;5094716;28;20235;-61
2023/04/06 09:55:10;;;;;;;6.47;6.27;;;;;;;12.63;100.00;149213.25;5094897;28;20188;-62
2023/04/06 09:57:50;;;;;;;7.57;7.07;;;;;;;12.33;100.00;149139.84;5094788;28;20212;-63
2023/04/06 10:00:23;;;;;;;8.37;7.67;;;;;;;12.42;100.00;149160.09;5095403;28;20599;-62
2023/04/06 10:02:56;;;;;;;9.73;7.27;;;;;;;12.42;100.00;149160.09;5094501;28;20223;-63
2023/04/06 10:05:33;;;;;;;11.03;8.27;;;;;;;12.32;100.00;149137.31;5094936;28;20562;-62
2023/04/06 10:08:07;;;;;;;8.77;7.90;;;;;;;12.48;100.00;149175.25;5094486;28;20281;-62
2023/04/06 10:10:34;;;;;;;11.83;7.77;;;;;;;12.53;100.00;149187.94;5094685;28;20190;-62
2023/04/06 10:13:03;;;;;;;8.47;7.50;;;;;;;12.67;100.00;149223.41;5094482;28;20246;-62
2023/04/06 10:15:31;;;;;;;7.93;7.33;;;;;;;12.45;100.00;149167.69;5094588;28;20181;-62
2023/04/06 10:17:59;;;;;;;8.60;8.00;;;;;;;12.61;100.00;149208.19;5094320;28;20224;-63
2023/04/06 10:20:32;;;;;;;8.77;8.03;;;;;;;12.57;100.00;149198.06;5094043;28;20214;-61
2023/04/06 10:23:06;;;;;;;17.33;7.97;;;;;;;12.57;100.00;149198.06;5094418;28;20566;-62
2023/04/06 10:25:34;;;;;;;7.43;7.03;;;;;;;12.85;100.00;149267.72;5094309;28;20180;-63
2023/04/06 10:28:06;;;;;;;9.23;8.33;;;;;;;13.01;100.00;149309.50;5094477;28;20180;-62
2023/04/06 10:30:34;;;;;;;8.33;7.60;;;;;;;12.96;100.00;149296.84;5094063;28;20196;-62
2023/04/06 10:33:02;;;;;;;8.47;8.07;;;;;;;12.77;100.00;149249.97;5094182;28;20191;-61
2023/04/06 10:35:39;;;;;;;9.97;9.37;;;;;;;12.53;100.00;149187.94;5093857;28;20187;-62
2023/04/06 10:38:07;;;;;;;9.97;8.93;;;;;;;12.47;100.00;149172.75;5094119;28;20203;-63
2023/04/06 10:40:38;;;;;;;9.13;8.60;;;;;;;12.73;100.00;149239.84;5093997;28;20180;-62
2023/04/06 10:43:11;;;;;;;8.87;8.13;;;;;;;12.59;100.00;149203.16;5093798;28;20191;-62
2023/04/06 10:45:39;;;;;;;8.53;7.97;;;;;;;12.57;100.00;149198.06;5094061;28;20603;-62
2023/04/06 10:48:16;;;;;;;8.93;8.20;;;;;;;12.57;100.00;149198.06;5093352;28;20180;-61
2023/04/06 10:50:45;;;;;;;8.57;7.97;;;;;;;12.79;100.00;149253.78;5092775;28;20645;-61
2023/04/06 10:53:13;;;;;;;8.60;7.80;;;;;;;12.84;100.00;149266.44;5094354;28;20592;-61
2023/04/06 10:55:41;;;;;;;8.07;7.47;;;;;;;12.92;100.00;149286.72;5094526;28;20730;-63
2023/04/06 10:58:12;;;;;;;7.93;7.37;;;;;;;12.99;100.00;149304.41;5093802;28;20204;-60
2023/04/06 11:00:46;;;;;;;9.10;8.20;;;;;;;13.04;100.00;149317.09;5093442;28;20232;-61
2023/04/06 11:03:13;;;;;;;9.67;8.93;;;;;;;13.09;100.00;149329.78;5093557;28;20177;-63
2023/04/06 11:05:44;;;;;;;8.43;7.73;;;;;;;12.93;100.00;149289.25;5093916;28;20618;-62
2023/04/06 11:08:11;;;;;;;8.10;7.50;;;;;;;12.93;100.00;149287.97;5093478;28;20184;-61
2023/04/06 11:10:40;;;;;;;9.03;8.23;;;;;;;12.95;100.00;149294.28;5093146;28;20574;-62
2023/04/06 11:13:07;;;;;;;7.40;6.90;;;;;;;13.01;100.00;149309.50;5093110;28;20625;-61
2023/04/06 11:15:37;;;;;;;8.40;7.60;;;;;;;12.97;100.00;149299.38;5093054;28;20188;-63
2023/04/06 11:18:05;;;;;;;7.80;7.20;;;;;;;13.03;100.00;149314.53;5092792;28;20242;-62
2023/04/06 11:20:33;;;;;;;7.03;6.63;;;;;;;13.00;100.00;149305.69;5093191;28;20608;-61